Maersk Shanghai — D5LD2 — position and weather

sailwx.info

Track history (hours):
 
Tides and Currents Weather Stations Pressure Air Temp Water Temp Dewpoint Dewpoint Depression Visibility Wind Speed Wind Dir Waves Ship Positions

Maersk Shanghai

Last reported at 2018-Apr-17 08:11 UTC. Time now 2018-Apr-26 22:58 UTC.
Position N 30°45' E 032°19'.
Warning: this ship's position is 9 days out of date.

Length 324 m; draft 12.9 m.

Type: Cargo ship. MMSI: 636017473.

Date/timePositionNaut miles runAvg speedWind from/ knotsBaromVisibWave heightAir tempDewpointWater temp
2018-Apr-17 08:11N 30°45' E 032°19'2 9.0
2018-Apr-17 08:00N 30°47' E 032°19'5 8.7
2018-Apr-17 07:24N 30°52' E 032°19'5 9.0
2018-Apr-17 06:53N 30°56' E 032°19'3 9.0
2018-Apr-17 06:30N 30°60' E 032°19'4 8.8
2018-Apr-17 06:00N 31°04' E 032°19'4 8.6
2018-Apr-17 05:31N 31°08' E 032°19'4 7.4
2018-Apr-17 05:01N 31°12' E 032°20'3 6.4
2018-Apr-17 04:30N 31°15' E 032°21'4 8.1
2018-Apr-17 04:00N 31°19' E 032°22'6 9.4
2018-Apr-17 03:22N 31°25' E 032°24'3 7.1
2018-Apr-17 03:01N 31°26' E 032°21'3 5.7
2018-Apr-17 02:25N 31°25' E 032°18'0 0.1
2018-Apr-17 01:06N 31°25' E 032°18'0 0.0
2018-Apr-17 01:00N 31°25' E 032°18'0 0.0
2018-Apr-17 00:30N 31°25' E 032°18'0 0.0
2018-Apr-16 23:54N 31°25' E 032°18'0 0.0
2018-Apr-16 23:30N 31°25' E 032°18'0 0.0
2018-Apr-16 23:00N 31°25' E 032°18'0 0.0
2018-Apr-16 22:30N 31°25' E 032°18'0 0.0
2018-Apr-16 22:00N 31°25' E 032°18'0 0.0
2018-Apr-16 21:24N 31°25' E 032°18'0 0.1
2018-Apr-16 20:53N 31°25' E 032°18'0 0.4
2018-Apr-16 20:31N 31°25' E 032°17'2 3.4
2018-Apr-16 20:01N 31°26' E 032°16'5 9.8
2018-Apr-16 19:30N 31°31' E 032°14'815.1
2018-Apr-16 18:58N 31°36' E 032°07'816.9
2018-Apr-16 18:30N 31°42' E 032°01'816.6
2018-Apr-16 18:00N 31°47' E 031°52'1017.0
2018-Apr-16 17:25N 31°50' E 031°41'717.1
2018-Apr-16 17:00N 31°52' E 031°33'917.1
2018-Apr-16 16:30N 31°55' E 031°24'1917.2
2018-Apr-16 15:23N 32°01' E 031°02'717.5
2018-Apr-16 14:59N 32°03' E 030°54'6416.7
2018-Apr-16 11:09N 32°23' E 029°42'316.7
2018-Apr-16 11:00N 32°24' E 029°39'78217.5
2018-Apr-14 14:15N 36°26' E 014°38'418.8
2018-Apr-14 14:00N 36°27' E 014°32'917.0
2018-Apr-14 13:30N 36°30' E 014°22'815.2
2018-Apr-14 13:00N 36°33' E 014°13'916.6
2018-Apr-14 12:28N 36°35' E 014°03'816.9
2018-Apr-14 12:01N 36°38' E 013°54'1018.8
2018-Apr-14 11:30N 36°41' E 013°42'816.2
2018-Apr-14 10:58N 36°44' E 013°32'817.7
2018-Apr-14 10:30N 36°46' E 013°22'918.1
2018-Apr-14 09:59N 36°49' E 013°11'1118.9
2018-Apr-14 09:26N 36°52' E 012°59'715.6
2018-Apr-14 09:00N 36°54' E 012°51'918.2
2018-Apr-14 08:30N 36°57' E 012°40'916.3
2018-Apr-14 07:58N 36°60' E 012°30'2218.3
2018-Apr-14 06:45N 37°07' E 012°03'20717.3
2018-Apr-13 18:47N 37°32' E 007°45'63118.1
2018-Apr-12 07:59N 36°00' W 005°14'1020.3
2018-Apr-12 07:30N 35°57' W 005°26'79516.1
2018-Apr-10 06:03N 36°13' W 021°49'218.1
2018-Apr-10 05:58N 36°13' W 021°51'7617.9
2018-Apr-10 01:43N 36°15' W 023°25'817.8
2018-Apr-10 01:16N 36°15' W 023°35'517.7
2018-Apr-10 01:00N 36°15' W 023°41'917.9
2018-Apr-10 00:30N 36°16' W 023°52'917.9
2018-Apr-10 00:00N 36°16' W 024°03'917.9
2018-Apr-09 23:30N 36°16' W 024°14'917.9
2018-Apr-09 23:00N 36°16' W 024°25'917.9
2018-Apr-09 22:30N 36°17' W 024°36'917.8
2018-Apr-09 22:00N 36°17' W 024°47'917.9
2018-Apr-09 21:30N 36°17' W 024°59'917.9
2018-Apr-09 21:00N 36°17' W 025°10'917.8
2018-Apr-09 20:30N 36°17' W 025°21'918.0
2018-Apr-09 20:00N 36°18' W 025°32'918.0
2018-Apr-09 19:30N 36°18' W 025°43'917.8
2018-Apr-09 19:00N 36°18' W 025°54'917.9
2018-Apr-09 18:30N 36°18' W 026°05'917.9
2018-Apr-09 18:00N 36°18' W 026°16'917.5
2018-Apr-09 17:30N 36°18' W 026°27'1817.4
2018-Apr-09 16:30N 36°19' W 026°49'817.4
2018-Apr-09 16:00N 36°19' W 026°59'917.4
2018-Apr-09 15:30N 36°20' W 027°10'1017.3
2018-Apr-09 14:55N 36°20' W 027°23'817.3
2018-Apr-09 14:27N 36°20' W 027°33'817.5
2018-Apr-09 14:01N 36°20' W 027°42'917.4
2018-Apr-09 13:30N 36°20' W 027°53'917.6
2018-Apr-09 13:00N 36°21' W 028°04'917.5
2018-Apr-09 12:30N 36°21' W 028°15'917.5
2018-Apr-09 12:01N 36°21' W 028°26'917.8
2018-Apr-09 11:31N 36°21' W 028°37'917.5
2018-Apr-09 11:00N 36°22' W 028°48'917.5
2018-Apr-09 10:30N 36°22' W 028°59'917.6
2018-Apr-09 10:00N 36°21' W 029°10'817.2
2018-Apr-09 09:30N 36°21' W 029°20'815.1
2018-Apr-09 09:00N 36°22' W 029°29'917.6
2018-Apr-09 08:30N 36°22' W 029°40'917.8
2018-Apr-09 08:00N 36°23' W 029°51'918.0
2018-Apr-09 07:30N 36°23' W 030°02'917.7
2018-Apr-09 07:01N 36°23' W 030°13'918.0
2018-Apr-09 06:30N 36°23' W 030°25'1217.6
2018-Apr-09 05:50N 36°24' W 030°39'1517.8
2018-Apr-09 05:00N 36°24' W 030°58'2917.7
2018-Apr-09 03:20N 36°25' W 031°34'  
Track history (hours):
 
Tides and Currents Weather Stations Pressure Air Temp Water Temp Dewpoint Dewpoint Depression Visibility Wind Speed Wind Dir Waves Ship Positions

Maersk Shanghai

Last reported at 2018-Apr-17 08:11 UTC. Time now 2018-Apr-26 22:58 UTC.
Position N 30°45' E 032°19'.
Warning: this ship's position is 9 days out of date.

Length 324 m; draft 12.9 m.

Type: Cargo ship. MMSI: 636017473.

Date/timePositionNaut miles runAvg speedWind from/ knotsBaromVisibWave heightAir tempDewpointWater temp
2018-Apr-17 08:11N 30°45' E 032°19'2 9.0
2018-Apr-17 08:00N 30°47' E 032°19'5 8.7
2018-Apr-17 07:24N 30°52' E 032°19'5 9.0
2018-Apr-17 06:53N 30°56' E 032°19'3 9.0
2018-Apr-17 06:30N 30°60' E 032°19'4 8.8
2018-Apr-17 06:00N 31°04' E 032°19'4 8.6
2018-Apr-17 05:31N 31°08' E 032°19'4 7.4
2018-Apr-17 05:01N 31°12' E 032°20'3 6.4
2018-Apr-17 04:30N 31°15' E 032°21'4 8.1
2018-Apr-17 04:00N 31°19' E 032°22'6 9.4
2018-Apr-17 03:22N 31°25' E 032°24'3 7.1
2018-Apr-17 03:01N 31°26' E 032°21'3 5.7
2018-Apr-17 02:25N 31°25' E 032°18'0 0.1
2018-Apr-17 01:06N 31°25' E 032°18'0 0.0
2018-Apr-17 01:00N 31°25' E 032°18'0 0.0
2018-Apr-17 00:30N 31°25' E 032°18'0 0.0
2018-Apr-16 23:54N 31°25' E 032°18'0 0.0
2018-Apr-16 23:30N 31°25' E 032°18'0 0.0
2018-Apr-16 23:00N 31°25' E 032°18'0 0.0
2018-Apr-16 22:30N 31°25' E 032°18'0 0.0
2018-Apr-16 22:00N 31°25' E 032°18'0 0.0
2018-Apr-16 21:24N 31°25' E 032°18'0 0.1
2018-Apr-16 20:53N 31°25' E 032°18'0 0.4
2018-Apr-16 20:31N 31°25' E 032°17'2 3.4
2018-Apr-16 20:01N 31°26' E 032°16'5 9.8
2018-Apr-16 19:30N 31°31' E 032°14'815.1
2018-Apr-16 18:58N 31°36' E 032°07'816.9
2018-Apr-16 18:30N 31°42' E 032°01'816.6
2018-Apr-16 18:00N 31°47' E 031°52'1017.0
2018-Apr-16 17:25N 31°50' E 031°41'717.1
2018-Apr-16 17:00N 31°52' E 031°33'917.1
2018-Apr-16 16:30N 31°55' E 031°24'1917.2
2018-Apr-16 15:23N 32°01' E 031°02'717.5
2018-Apr-16 14:59N 32°03' E 030°54'6416.7
2018-Apr-16 11:09N 32°23' E 029°42'316.7
2018-Apr-16 11:00N 32°24' E 029°39'78217.5
2018-Apr-14 14:15N 36°26' E 014°38'418.8
2018-Apr-14 14:00N 36°27' E 014°32'917.0
2018-Apr-14 13:30N 36°30' E 014°22'815.2
2018-Apr-14 13:00N 36°33' E 014°13'916.6
2018-Apr-14 12:28N 36°35' E 014°03'816.9
2018-Apr-14 12:01N 36°38' E 013°54'1018.8
2018-Apr-14 11:30N 36°41' E 013°42'816.2
2018-Apr-14 10:58N 36°44' E 013°32'817.7
2018-Apr-14 10:30N 36°46' E 013°22'918.1
2018-Apr-14 09:59N 36°49' E 013°11'1118.9
2018-Apr-14 09:26N 36°52' E 012°59'715.6
2018-Apr-14 09:00N 36°54' E 012°51'918.2
2018-Apr-14 08:30N 36°57' E 012°40'916.3
2018-Apr-14 07:58N 36°60' E 012°30'2218.3
2018-Apr-14 06:45N 37°07' E 012°03'20717.3
2018-Apr-13 18:47N 37°32' E 007°45'63118.1
2018-Apr-12 07:59N 36°00' W 005°14'1020.3
2018-Apr-12 07:30N 35°57' W 005°26'79516.1
2018-Apr-10 06:03N 36°13' W 021°49'218.1
2018-Apr-10 05:58N 36°13' W 021°51'7617.9
2018-Apr-10 01:43N 36°15' W 023°25'817.8
2018-Apr-10 01:16N 36°15' W 023°35'517.7
2018-Apr-10 01:00N 36°15' W 023°41'917.9
2018-Apr-10 00:30N 36°16' W 023°52'917.9
2018-Apr-10 00:00N 36°16' W 024°03'917.9
2018-Apr-09 23:30N 36°16' W 024°14'917.9
2018-Apr-09 23:00N 36°16' W 024°25'917.9
2018-Apr-09 22:30N 36°17' W 024°36'917.8
2018-Apr-09 22:00N 36°17' W 024°47'917.9
2018-Apr-09 21:30N 36°17' W 024°59'917.9
2018-Apr-09 21:00N 36°17' W 025°10'917.8
2018-Apr-09 20:30N 36°17' W 025°21'918.0
2018-Apr-09 20:00N 36°18' W 025°32'918.0
2018-Apr-09 19:30N 36°18' W 025°43'917.8
2018-Apr-09 19:00N 36°18' W 025°54'917.9
2018-Apr-09 18:30N 36°18' W 026°05'917.9
2018-Apr-09 18:00N 36°18' W 026°16'917.5
2018-Apr-09 17:30N 36°18' W 026°27'1817.4
2018-Apr-09 16:30N 36°19' W 026°49'817.4
2018-Apr-09 16:00N 36°19' W 026°59'917.4
2018-Apr-09 15:30N 36°20' W 027°10'1017.3
2018-Apr-09 14:55N 36°20' W 027°23'817.3
2018-Apr-09 14:27N 36°20' W 027°33'817.5
2018-Apr-09 14:01N 36°20' W 027°42'917.4
2018-Apr-09 13:30N 36°20' W 027°53'917.6
2018-Apr-09 13:00N 36°21' W 028°04'917.5
2018-Apr-09 12:30N 36°21' W 028°15'917.5
2018-Apr-09 12:01N 36°21' W 028°26'917.8
2018-Apr-09 11:31N 36°21' W 028°37'917.5
2018-Apr-09 11:00N 36°22' W 028°48'917.5
2018-Apr-09 10:30N 36°22' W 028°59'917.6
2018-Apr-09 10:00N 36°21' W 029°10'817.2
2018-Apr-09 09:30N 36°21' W 029°20'815.1
2018-Apr-09 09:00N 36°22' W 029°29'917.6
2018-Apr-09 08:30N 36°22' W 029°40'917.8
2018-Apr-09 08:00N 36°23' W 029°51'918.0
2018-Apr-09 07:30N 36°23' W 030°02'917.7
2018-Apr-09 07:01N 36°23' W 030°13'918.0
2018-Apr-09 06:30N 36°23' W 030°25'1217.6
2018-Apr-09 05:50N 36°24' W 030°39'1517.8
2018-Apr-09 05:00N 36°24' W 030°58'2917.7
2018-Apr-09 03:20N 36°25' W 031°34'  

Dump ship's entire track history